Terminal Aerodrome Forecast
Issued by NWS

Home | Current Version | Previous Version | Text Only | Print | Product List | Glossary On
Versions: 1 2 3 4 5 6 7 8 9 10 11 12 13 14 15
760
FTUS45 KFGZ 310537
TAFPGA
TAF
KPGA 310537Z 3106/0106 27010G15KT P6SM VCSH FEW060 BKN110
      TEMPO 3106/3108 VRB20G30KT 4SM TSRA SCT045 BKN090CB
     FM310900 VRB06KT P6SM BKN100
     FM311800 31007KT P6SM SCT110 BKN130 PROB30 3122/0104 VRB15G25KT
      -TSRA SCT060 BKN100CB=

USA.gov is the U.S. government's official web portal to all federal, state and local government web resources and services.